KHBV

Jim Hogg County Airport

Hebbronville, Texas, USA
METAR KHBV 181410Z AUTO 00000KT 1/4SM +RA OVC001 16/15 A3004 RMK AO2 T01550152
Observed Flight Rules
Jan-18 @ 14:10 UTC (26 minutes ago) Instrument Flight Rules
Visibility Clouds Conditions
1/4 miles
  • Overcast at 100' AGL
  • Heavy Rain
Temperatures Readings
Current 16°C / 61°F
Dewpoint 15°C / 59°F
Humidity 94%
Altimeter 30.04" Hg
Pressure 1017.32 hPa
Elevation 202
METAR KHBV 181410Z AUTO 00000KT 1/4SM +RA OVC001 16/15 A3004 RMK AO2 T01550152
Observed Flight Rules
Jan-18 @ 14:10 UTC
(26 minutes ago)
LIFR
Clouds
  • Overcast at 100' AGL
Conditions
  • Heavy Rain
Temperature Dewpoint
16°C / 61°F 15°C / 59°F
Humidity Altimeter Pressure
94% 30.04" Hg 1017.32 hPa